Orbital elements of COSMOS 2251 DEB
| Launched | 15 June 1993 |
| Flight ended | – |
| Launch site | Plesetsk Missile and Space Complex, Russia |
| Owner | Commonwealth of Independent States (former USSR) |
| NORAD ID | 33990 |
| Date fetched |
Epoch osculation |
Inc. [°] |
Ecc. | RA asc node [hr] |
Arg Peri. [°] |
Mean anom [°] |
Mean motion [rev/day] |
Abs. mag |
| Date fetched |
Epoch osculation |
Inc. [°] |
Ecc. | RA asc node [hr] |
Arg Peri. [°] |
Mean anom [°] |
Mean motion [rev/day] |
Abs. mag |
| 2026 May 05 17:57 | 2026 May 05 13:16:55 | 73.9289 | 0.04045 | 3.6725 | 48.7592 | 129.9349 | 13.50226 | – |
| 2026 May 04 17:57 | 2026 Apr 30 14:08:36 | 73.9283 | 0.04043 | 4.2039 | 57.6583 | 129.9349 | 13.50226 | – |
| 2026 May 03 17:57 | 2026 Apr 30 14:08:36 | 73.9283 | 0.04043 | 4.2039 | 57.6583 | 129.9349 | 13.50226 | – |
| 2026 May 02 17:57 | 2026 Apr 30 14:08:36 | 73.9283 | 0.04043 | 4.2039 | 57.6583 | 129.9349 | 13.50226 | – |
| 2026 May 01 17:56 | 2026 Apr 30 14:08:36 | 73.9283 | 0.04043 | 4.2039 | 57.6583 | 129.9349 | 13.50226 | – |
| 2026 Apr 30 17:56 | 2026 Apr 30 14:08:36 | 73.9283 | 0.04043 | 4.2039 | 57.6583 | 129.9349 | 13.50226 | – |
| 2026 Apr 29 17:57 | 2026 Apr 24 08:30:31 | 73.9271 | 0.04041 | 4.8713 | 68.8448 | 129.9349 | 13.50226 | – |
| 2026 Apr 28 17:56 | 2026 Apr 24 08:30:31 | 73.9271 | 0.04041 | 4.8713 | 68.8448 | 129.9349 | 13.50226 | – |
| 2026 Apr 27 17:58 | 2026 Apr 24 08:30:31 | 73.9271 | 0.04041 | 4.8713 | 68.8448 | 129.9349 | 13.50226 | – |
| 2026 Apr 26 17:58 | 2026 Apr 24 08:30:31 | 73.9271 | 0.04041 | 4.8713 | 68.8448 | 129.9349 | 13.50226 | – |
| 2026 Apr 25 17:58 | 2026 Apr 24 08:30:31 | 73.9271 | 0.04041 | 4.8713 | 68.8448 | 129.9349 | 13.50226 | – |
| 2026 Apr 24 17:59 | 2026 Apr 24 08:30:31 | 73.9271 | 0.04041 | 4.8713 | 68.8448 | 129.9349 | 13.50226 | – |
| 2026 Apr 23 17:57 | 2026 Apr 18 22:15:31 | 73.9262 | 0.04039 | 5.4523 | 78.5909 | 129.9349 | 13.50226 | – |
| 2026 Apr 22 17:57 | 2026 Apr 18 22:15:31 | 73.9262 | 0.04039 | 5.4523 | 78.5909 | 129.9349 | 13.50226 | – |
| 2026 Apr 21 17:57 | 2026 Apr 18 22:15:31 | 73.9262 | 0.04039 | 5.4523 | 78.5909 | 129.9349 | 13.50226 | – |
| 2026 Apr 20 17:57 | 2026 Apr 18 22:15:31 | 73.9262 | 0.04039 | 5.4523 | 78.5909 | 129.9349 | 13.50226 | – |
| 2026 Apr 19 17:58 | 2026 Apr 18 22:15:31 | 73.9262 | 0.04039 | 5.4523 | 78.5909 | 129.9349 | 13.50226 | – |
| 2026 Apr 18 17:56 | 2026 Apr 13 05:16:37 | 73.9253 | 0.04038 | 6.0633 | 88.8481 | 129.9349 | 13.50226 | – |
| 2026 Apr 16 17:57 | 2026 Apr 13 05:16:37 | 73.9253 | 0.04038 | 6.0633 | 88.8481 | 129.9349 | 13.50226 | – |
| 2026 Apr 14 17:57 | 2026 Apr 13 05:16:37 | 73.9253 | 0.04038 | 6.0633 | 88.8481 | 129.9349 | 13.50226 | – |
| 2026 Apr 13 17:57 | 2026 Apr 13 05:16:37 | 73.9253 | 0.04038 | 6.0633 | 88.8481 | 129.9349 | 13.50226 | – |
| 2026 Apr 12 17:57 | 2026 Apr 08 10:18:53 | 73.9250 | 0.04038 | 6.5761 | 97.4615 | 129.9349 | 13.50226 | – |
| 2026 Apr 11 17:57 | 2026 Apr 08 10:18:53 | 73.9250 | 0.04038 | 6.5761 | 97.4615 | 129.9349 | 13.50226 | – |
| 2026 Apr 10 17:58 | 2026 Apr 08 10:18:53 | 73.9250 | 0.04038 | 6.5761 | 97.4615 | 129.9349 | 13.50226 | – |
| 2026 Apr 09 18:01 | 2026 Apr 08 10:18:53 | 73.9250 | 0.04038 | 6.5761 | 97.4615 | 129.9349 | 13.50226 | – |
| 2026 Apr 08 17:57 | 2026 Apr 08 10:18:53 | 73.9250 | 0.04038 | 6.5761 | 97.4615 | 129.9349 | 13.50226 | – |